CW1196 Weather Reports


time (UTC)temp
C
wind
direction
speed
KPH
gust
KPH
rain 1hr
cm
rain 24hr
cm
rain mn
cm
humidity
%
barometer
mb
20190419045604 24 130 3.2 8.0 0.00 0.00 0.00 59 1025.5
20190419045104 24 89 8.0 12.9 0.00 0.00 0.00 61 1025.6
20190419044604 24 92 4.8 9.7 0.00 0.00 0.00 60 1025.5
20190419044105 24 97 8.0 9.7 0.00 0.00 0.00 61 1025.5
20190419043604 24 70 4.8 11.3 0.00 0.00 0.00 60 1025.6
20190419043104 24 109 4.8 11.3 0.00 0.00 0.00 61 1025.5
20190419042604 24 123 6.4 11.3 0.00 0.00 0.00 60 1025.6
20190419042104 25 109 6.4 12.9 0.00 0.00 0.00 59 1025.6
20190419041604 25 50 6.4 11.3 0.00 0.00 0.00 57 1025.7
20190419041104 25 94 8.0 12.9 0.00 0.00 0.00 56 1025.6
20190419040615 25 67 4.8 11.3 0.00 0.00 0.00 57 1025.7
20190419040105 25 42 8.0 11.3 0.00 0.00 0.00 53 1025.7
20190419035604 25 52 4.8 11.3 0.00 0.00 0.00 53 1025.8
20190419035104 25 47 4.8 14.5 0.00 0.00 0.00 52 1025.9
20190419034605 25 38 1.6 4.8 0.00 0.00 0.00 54 1025.8
20190419034104 25 85 6.4 11.3 0.00 0.00 0.00 54 1025.9
20190419033604 25 21 1.6 8.0 0.00 0.00 0.00 55 1026.0
20190419033105 25 29 3.2 8.0 0.00 0.00 0.00 55 1026.0
20190419032604 25 57 4.8 9.7 0.00 0.00 0.00 56 1026.0
20190419032105 25 2 4.8 11.3 0.00 0.00 0.00 56 1026.0
20190419031604 25 48 8.0 12.9 0.00 0.00 0.00 55 1026.1
20190419031104 25 64 3.2 9.7 0.00 0.00 0.00 56 1026.1
20190419030604 25 60 6.4 12.9 0.00 0.00 0.00 56 1026.2
20190419030105 25 313 3.2 4.8 0.00 0.00 0.00 55 1026.3
20190419025604 25 288 3.2 4.8 0.00 0.00 0.00 54 1026.4
20190419025104 25 348 4.8 9.7 0.00 0.00 0.00 55 1026.5
20190419024604 25 186 1.6 4.8 0.00 0.00 0.00 54 1026.6
20190419024104 25 307 1.6 4.8 0.00 0.00 0.00 54 1026.7
20190419023604 25 57 6.4 11.3 0.00 0.00 0.00 53 1026.8
20190419023104 25 153 1.6 4.8 0.00 0.00 0.00 53 1026.9
20190419022604 25 49 3.2 4.8 0.00 0.00 0.00 55 1027.0
20190419022104 25 350 4.8 8.0 0.00 0.00 0.00 55 1027.1
20190419021604 25 70 3.2 8.0 0.00 0.00 0.00 56 1027.2
20190419021104 25 293 3.2 4.8 0.00 0.00 0.00 59 1027.3
20190419020604 24 282 4.8 8.0 0.00 0.00 0.00 58 1027.4
20190419020105 24 279 3.2 4.8 0.00 0.00 0.00 59 1027.5
20190419015604 25 302 3.2 9.7 0.00 0.00 0.00 59 1027.5
20190419015104 24 295 3.2 4.8 0.00 0.00 0.00 59 1027.7
20190419014604 24 285 4.8 8.0 0.00 0.00 0.00 59 1027.8
20190419014105 24 283 3.2 8.0 0.00 0.00 0.00 60 1027.9
20190419013604 23 55 1.6 3.2 0.00 0.00 0.00 62 1027.9
20190419013105 23 129 1.6 4.8 0.00 0.00 0.00 60 1028.0
20190419012605 24 40 1.6 4.8 0.00 0.00 0.00 62 1028.2
20190419012104 23 337 1.6 4.8 0.00 0.00 0.00 64 1028.3
20190419011604 23 355 3.2 4.8 0.00 0.00 0.00 63 1028.3
20190419011104 23 258 1.6 8.0 0.00 0.00 0.00 64 1028.4
20190419010605 23 266 3.2 8.0 0.00 0.00 0.00 64 1028.5
20190419010104 23 260 1.6 4.8 0.00 0.00 0.00 64 1028.6
20190419005605 23 326 1.6 4.8 0.00 0.00 0.00 65 1028.7
20190419005104 22 48 3.2 4.8 0.00 0.00 0.00 66 1028.8
20190419004604 22 335 3.2 4.8 0.00 0.00 0.00 67 1028.9
20190419004104 22 269 1.6 4.8 0.00 0.00 0.00 67 1028.9
20190419003604 22 253 1.6 3.2 0.00 0.00 0.00 67 1029.0
20190419003105 22 24 3.2 4.8 0.00 0.00 0.00 70 1029.0
20190419002605 21 287 3.2 4.8 0.00 0.00 0.00 71 1029.1
20190419002104 21 354 1.6 8.0 0.00 0.00 0.00 72 1029.1
20190419001605 21 50 3.2 8.0 0.00 0.00 0.00 72 1029.1
20190419001104 21 346 4.8 8.0 0.00 0.00 0.00 73 1029.2
20190419000605 21 37 3.2 4.8 0.00 0.00 0.00 74 1029.3
20190419000104 20 9 3.2 4.8 0.00 0.00 0.00 75 1029.2
20190418235604 20 33 1.6 4.8 0.00 0.00 0.00 75 1029.2
20190418235105 20 340 1.6 4.8 0.00 0.00 0.00 76 1029.2
20190418234604 20 284 1.6 3.2 0.00 0.00 0.00 75 1029.2
20190418234104 20 311 1.6 3.2 0.00 0.00 0.00 75 1029.3
20190418233605 20 328 0.0 4.8 0.00 0.00 0.00 76 1029.3
20190418233119 20 328 1.6 3.2 0.00 0.00 0.00 75 1029.3
20190418232604 20 287 1.6 4.8 0.00 0.00 0.00 76 1029.3
20190418232104 20 338 0.0 4.8 0.00 0.00 0.00 75 1029.3
20190418231604 20 266 0.0 1.6 0.00 0.00 0.00 76 1029.4
20190418231105 20 264 0.0 1.6 0.00 0.00 0.00 76 1029.4
20190418230604 20 260 0.0 1.6 0.00 0.00 0.00 76 1029.4
20190418230105 20 265 3.2 3.2 0.00 0.00 0.00 77 1029.4
20190418225604 19 269 1.6 4.8 0.00 0.00 0.00 77 1029.5
20190418225104 19 251 1.6 3.2 0.00 0.00 0.00 78 1029.4
20190418224604 19 261 1.6 4.8 0.00 0.00 0.00 78 1029.4
20190418224105 18 274 1.6 4.8 0.00 0.00 0.00 79 1029.4
20190418223605 18 244 3.2 4.8 0.00 0.00 0.00 79 1029.4
20190418223104 18 271 3.2 4.8 0.00 0.00 0.00 80 1029.4
20190418222604 18 250 3.2 4.8 0.00 0.00 0.00 81 1029.3
20190418222104 17 210 1.6 4.8 0.00 0.00 0.00 82 1029.3
20190418221604 17 231 1.6 4.8 0.00 0.00 0.00 82 1029.2
20190418221105 17 236 1.6 3.2 0.00 0.00 0.00 83 1029.2
20190418220604 17 220 0.0 3.2 0.00 0.00 0.00 83 1029.0
20190418220104 17 219 1.6 3.2 0.00 0.00 0.00 83 1029.0
20190418215604 17 225 1.6 4.8 0.00 0.00 0.00 83 1028.9
20190418215104 17 202 0.0 1.6 0.00 0.00 0.00 84 1028.8
20190418214605 17 211 1.6 1.6 0.00 0.00 0.00 85 1028.8
20190418214104 17 271 0.0 1.6 0.00 0.00 0.00 85 1028.8
20190418213605 16 271 0.0 1.6 0.00 0.00 0.00 86 1028.7
20190418213104 16 271 0.0 1.6 0.00 0.00 0.00 86 1028.7
20190418212604 16 271 0.0 1.6 0.00 0.00 0.00 86 1028.6
20190418212104 16 271 0.0 1.6 0.00 0.00 0.00 87 1028.4
20190418211604 16 274 0.0 1.6 0.00 0.00 0.00 87 1028.3
20190418211104 16 274 0.0 1.6 0.00 0.00 0.00 87 1028.3
20190418210604 16 273 0.0 1.6 0.00 0.00 0.00 87 1028.1
20190418210104 16 273 0.0 1.6 0.00 0.00 0.00 87 1028.1
20190418205605 16 273 0.0 1.6 0.00 0.00 0.00 87 1028.1
20190418205104 16 274 0.0 0.0 0.00 0.00 0.00 87 1028.0
20190418204605 16 274 0.0 0.0 0.00 0.00 0.00 87 1028.0
20190418204104 16 274 0.0 0.0 0.00 0.00 0.00 87 1027.9
20190418203604 16 274 0.0 1.6 0.00 0.00 0.00 87 1027.8
20190418203104 16 274 0.0 0.0 0.00 0.00 0.00 87 1027.8
20190418202604 16 274 0.0 0.0 0.00 0.00 0.00 87 1027.7
20190418201605 16 274 0.0 0.0 0.00 0.00 0.00 87 1027.6
20190418201105 16 274 0.0 0.0 0.00 0.00 0.00 86 1027.6
20190418200605 16 274 0.0 1.6 0.00 0.00 0.00 86 1027.4
20190418200105 16 274 0.0 1.6 0.00 0.00 0.00 86 1027.3
20190418195604 16 274 1.6 3.2 0.00 0.00 0.00 86 1027.3
20190418195104 16 262 1.6 3.2 0.00 0.00 0.00 86 1027.3
20190418194604 16 257 1.6 3.2 0.00 0.00 0.00 86 1027.3
20190418194104 16 253 1.6 3.2 0.00 0.00 0.00 86 1027.4
20190418193605 16 254 1.6 3.2 0.00 0.00 0.00 86 1027.3
20190418193105 16 267 1.6 1.6 0.00 0.00 0.00 86 1027.2
20190418192605 16 266 1.6 1.6 0.00 0.00 0.00 86 1027.2
20190418192104 16 267 0.0 1.6 0.00 0.00 0.00 86 1027.2
20190418191605 16 267 0.0 3.2 0.00 0.00 0.00 86 1027.1
20190418191104 16 266 1.6 1.6 0.00 0.00 0.00 86 1027.2
20190418190604 16 263 1.6 1.6 0.00 0.00 0.00 86 1027.1
20190418190105 16 263 1.6 3.2 0.00 0.00 0.00 86 1027.1
20190418185605 16 265 1.6 3.2 0.00 0.00 0.00 86 1027.1
20190418185104 16 267 0.0 1.6 0.00 0.00 0.00 86 1027.1
20190418184605 16 265 0.0 1.6 0.00 0.00 0.00 86 1027.0
20190418184105 16 265 0.0 1.6 0.00 0.00 0.00 86 1027.0
20190418183605 16 265 1.6 1.6 0.00 0.00 0.00 86 1027.0
20190418183104 16 258 1.6 3.2 0.00 0.00 0.00 86 1027.0
20190418182604 16 263 1.6 4.8 0.00 0.00 0.00 86 1026.9
20190418182104 16 246 0.0 1.6 0.00 0.00 0.00 86 1026.9
20190418181604 16 246 1.6 1.6 0.00 0.00 0.00 86 1026.9
20190418181104 16 231 1.6 3.2 0.00 0.00 0.00 87 1026.8
20190418180604 16 220 0.0 3.2 0.00 0.00 0.00 87 1026.8
20190418180104 16 236 1.6 4.8 0.00 0.00 0.00 87 1026.8
20190418175604 16 240 1.6 4.8 0.00 0.00 0.00 88 1026.8
20190418175104 16 260 0.0 1.6 0.00 0.00 0.00 89 1026.8
20190418174604 16 260 0.0 1.6 0.00 0.00 0.00 89 1026.8
20190418174104 16 260 1.6 1.6 0.00 0.00 0.00 89 1026.8
20190418173605 16 261 0.0 1.6 0.00 0.00 0.00 89 1026.7
20190418173104 16 261 0.0 0.0 0.00 0.00 0.00 88 1026.7
20190418172604 16 261 0.0 1.6 0.00 0.00 0.00 89 1026.7
20190418172104 16 261 0.0 1.6 0.00 0.00 0.00 88 1026.7
20190418171605 16 261 0.0 0.0 0.00 0.00 0.00 88 1026.8
20190418171105 16 261 0.0 1.6 0.00 0.00 0.00 88 1026.8
20190418170605 16 261 0.0 1.6 0.00 0.00 0.00 88 1026.8
20190418170105 16 261 0.0 1.6 0.00 0.00 0.00 88 1026.8
20190418165605 16 261 0.0 0.0 0.00 0.00 0.00 88 1026.8
20190418165105 16 261 0.0 1.6 0.00 0.00 0.00 88 1026.9
20190418164604 16 253 1.6 1.6 0.00 0.00 0.00 88 1027.0
20190418164105 17 253 0.0 1.6 0.00 0.00 0.00 87 1027.0
20190418163605 17 253 0.0 1.6 0.00 0.00 0.00 86 1027.0
20190418163105 17 253 0.0 1.6 0.00 0.00 0.00 85 1027.0
20190418162605 17 243 1.6 1.6 0.00 0.00 0.00 85 1027.1
20190418162105 17 216 0.0 1.6 0.00 0.00 0.00 84 1027.1
20190418161610 17 216 0.0 1.6 0.00 0.00 0.00 84 1027.2
20190418161105 17 216 0.0 0.0 0.00 0.00 0.00 82 1027.2
20190418160605 17 216 0.0 1.6 0.00 0.00 0.00 83 1027.2
20190418160104 17 216 0.0 1.6 0.00 0.00 0.00 83 1027.3
20190418155604 17 216 0.0 1.6 0.00 0.00 0.00 83 1027.3
20190418155105 17 216 0.0 1.6 0.00 0.00 0.00 83 1027.4
20190418154605 17 216 0.0 1.6 0.00 0.00 0.00 83 1027.4
20190418154104 17 216 0.0 1.6 0.00 0.00 0.00 83 1027.4
20190418153604 17 216 0.0 1.6 0.00 0.00 0.00 83 1027.5
20190418153105 18 216 0.0 0.0 0.00 0.00 0.00 82 1027.6
20190418152605 18 216 0.0 1.6 0.00 0.00 0.00 82 1027.6
20190418152105 18 216 1.6 1.6 0.00 0.00 0.00 82 1027.6
20190418151605 18 216 0.0 1.6 0.00 0.00 0.00 82 1027.7
20190418151105 18 216 0.0 1.6 0.00 0.00 0.00 82 1027.7
20190418150605 18 216 0.0 3.2 0.00 0.00 0.00 82 1027.8
20190418150104 18 269 0.0 3.2 0.00 0.00 0.00 82 1027.8
20190418145604 18 271 0.0 3.2 0.00 0.00 0.00 82 1027.8
20190418145104 18 268 0.0 3.2 0.00 0.00 0.00 82 1027.8
20190418144604 18 260 1.6 1.6 0.00 0.00 0.00 82 1027.8
20190418144105 18 260 0.0 1.6 0.00 0.00 0.00 82 1027.9
20190418143604 18 260 1.6 1.6 0.00 0.00 0.00 82 1027.8
20190418143105 18 260 1.6 3.2 0.00 0.00 0.00 82 1027.9
20190418142605 18 260 0.0 0.0 0.00 0.00 0.00 82 1028.0
20190418142104 18 260 0.0 1.6 0.00 0.00 0.00 82 1028.0
20190418141604 18 262 0.0 1.6 0.00 0.00 0.00 82 1028.0
20190418141105 18 263 0.0 0.0 0.00 0.00 0.00 82 1028.1
20190418140605 18 263 0.0 1.6 0.00 0.00 0.00 82 1028.1
20190418140105 18 263 1.6 3.2 0.00 0.00 0.00 82 1028.1
20190418135604 18 255 0.0 1.6 0.00 0.00 0.00 82 1028.1
20190418135104 18 255 1.6 1.6 0.00 0.00 0.00 82 1028.0
20190418134605 18 255 0.0 1.6 0.00 0.00 0.00 82 1028.1
20190418134105 18 255 0.0 3.2 0.00 0.00 0.00 82 1028.0
20190418133605 18 261 1.6 3.2 0.00 0.00 0.00 82 1028.1
20190418133105 18 232 1.6 3.2 0.00 0.00 0.00 81 1028.1
20190418132605 18 252 1.6 3.2 0.00 0.00 0.00 82 1028.1
20190418132104 18 263 1.6 3.2 0.00 0.00 0.00 82 1028.2
20190418131604 18 234 1.6 1.6 0.00 0.00 0.00 82 1028.1
20190418131104 18 239 0.0 1.6 0.00 0.00 0.00 81 1028.1
20190418130604 18 238 0.0 1.6 0.00 0.00 0.00 82 1028.1
20190418130105 18 238 0.0 1.6 0.00 0.00 0.00 81 1028.1
20190418125604 18 238 0.0 3.2 0.00 0.00 0.00 81 1028.1
20190418125104 18 206 0.0 1.6 0.00 0.00 0.00 81 1028.1
20190418124604 18 206 0.0 0.0 0.00 0.00 0.00 80 1028.0
20190418124105 18 206 1.6 1.6 0.00 0.00 0.00 80 1028.0
20190418123604 18 206 1.6 1.6 0.00 0.00 0.00 80 1028.0
20190418123104 18 195 0.0 1.6 0.00 0.00 0.00 80 1028.1
20190418122604 18 195 1.6 3.2 0.00 0.00 0.00 80 1028.1
20190418122123 18 193 1.6 3.2 0.00 0.00 0.00 79 1028.1
20190418121605 19 189 1.6 4.8 0.00 0.00 0.00 79 1028.1
20190418121104 19 218 3.2 4.8 0.00 0.00 0.00 79 1028.0
20190418120605 19 185 3.2 4.8 0.00 0.00 0.00 79 1028.0
20190418120105 19 151 1.6 8.0 0.00 0.00 0.00 78 1027.9
20190418115604 19 192 3.2 4.8 0.00 0.00 0.00 78 1027.9
20190418115105 19 150 4.8 8.0 0.00 0.00 0.00 78 1027.8
20190418114605 19 202 4.8 11.3 0.00 0.00 0.00 78 1027.8
20190418114105 19 162 4.8 9.7 0.00 0.00 0.00 78 1027.7
20190418113605 19 176 3.2 8.0 0.00 0.00 0.00 78 1027.7
20190418113105 19 162 3.2 4.8 0.00 0.00 0.00 78 1027.7
20190418112605 19 151 3.2 8.0 0.00 0.00 0.00 78 1027.8
20190418112105 19 139 6.4 9.7 0.00 0.00 0.00 78 1027.6
20190418111605 19 180 4.8 9.7 0.00 0.00 0.00 78 1027.7
20190418111104 20 165 4.8 11.3 0.00 0.00 0.00 78 1027.6
20190418110604 20 166 6.4 11.3 0.00 0.00 0.00 78 1027.6
20190418110105 20 165 4.8 11.3 0.00 0.00 0.00 78 1027.5
20190418105604 20 154 4.8 9.7 0.00 0.00 0.00 78 1027.3
20190418105104 20 152 6.4 11.3 0.00 0.00 0.00 78 1027.3
20190418104604 20 138 4.8 11.3 0.00 0.00 0.00 78 1027.1
20190418104104 20 163 8.0 11.3 0.00 0.00 0.00 78 1027.2
20190418103604 20 161 4.8 11.3 0.00 0.00 0.00 78 1027.0
20190418103105 20 153 6.4 11.3 0.00 0.00 0.00 78 1027.0
20190418102605 20 142 4.8 9.7 0.00 0.00 0.00 78 1026.9
20190418102105 20 147 4.8 9.7 0.00 0.00 0.00 78 1026.9
20190418101605 20 149 4.8 11.3 0.00 0.00 0.00 78 1026.9
20190418101104 20 150 8.0 14.5 0.00 0.00 0.00 78 1026.8
20190418100604 20 140 4.8 16.1 0.00 0.00 0.00 78 1026.7
20190418100104 20 134 8.0 11.3 0.00 0.00 0.00 78 1026.6
20190418095605 20 128 8.0 16.1 0.00 0.00 0.00 77 1026.5
20190418095105 20 147 4.8 19.3 0.00 0.00 0.00 77 1026.4
20190418094605 20 145 8.0 14.5 0.00 0.00 0.00 77 1026.4
20190418094105 20 136 6.4 16.1 0.00 0.00 0.00 77 1026.3
20190418093605 20 129 9.7 16.1 0.00 0.00 0.00 77 1026.2
20190418093105 20 148 8.0 19.3 0.00 0.00 0.00 76 1026.1
20190418092606 20 142 9.7 16.1 0.00 0.00 0.00 76 1026.1
20190418092105 20 142 8.0 16.1 0.00 0.00 0.00 76 1026.1
20190418091605 20 160 9.7 19.3 0.00 0.00 0.00 76 1026.0
20190418091104 20 155 11.3 19.3 0.00 0.00 0.00 76 1026.0
20190418090605 20 159 9.7 19.3 0.00 0.00 0.00 76 1025.9
20190418090106 21 157 11.3 19.3 0.00 0.00 0.00 75 1025.9
20190418085605 21 161 9.7 16.1 0.00 0.00 0.00 74 1025.8
20190418085104 21 152 9.7 20.9 0.00 0.00 0.00 73 1025.7
20190418084604 21 154 9.7 20.9 0.00 0.00 0.00 71 1025.6
20190418084105 21 150 8.0 11.3 0.00 0.00 0.00 68 1025.5
20190418083604 22 142 8.0 16.1 0.00 0.00 0.00 67 1025.4
20190418083104 22 146 8.0 12.9 0.00 0.00 0.00 67 1025.3
20190418082604 22 112 6.4 11.3 0.00 0.00 0.00 66 1025.0
20190418082104 22 103 3.2 4.8 0.00 0.00 0.00 66 1024.9
20190418081604 22 94 3.2 4.8 0.00 0.00 0.00 65 1024.8
20190418081105 22 118 4.8 8.0 0.00 0.00 0.00 65 1024.6
20190418080605 22 107 3.2 9.7 0.00 0.00 0.00 65 1024.5
20190418080105 22 109 3.2 4.8 0.00 0.00 0.00 64 1024.4
20190418075606 23 98 3.2 8.0 0.00 0.00 0.00 64 1024.3
20190418075105 23 92 4.8 8.0 0.00 0.00 0.00 63 1024.2
20190418074605 23 88 3.2 8.0 0.00 0.00 0.00 63 1024.1
20190418074104 23 85 4.8 9.7 0.00 0.00 0.00 62 1024.1
20190418073604 23 93 4.8 8.0 0.00 0.00 0.00 61 1023.9
20190418073106 23 102 3.2 8.0 0.00 0.00 0.00 61 1023.9
20190418072604 24 99 3.2 4.8 0.00 0.00 0.00 60 1023.8
20190418072104 24 72 4.8 9.7 0.00 0.00 0.00 59 1023.8
20190418071605 24 56 8.0 12.9 0.00 0.00 0.00 58 1023.6
20190418071104 25 76 6.4 11.3 0.00 0.00 0.00 57 1023.6
20190418070604 25 83 3.2 9.7 0.00 0.00 0.00 57 1023.5
20190418070105 25 87 4.8 9.7 0.00 0.00 0.00 56 1023.5
20190418065605 25 89 4.8 9.7 0.00 0.00 0.00 56 1023.4
20190418065104 25 56 8.0 14.5 0.00 0.00 0.00 55 1023.3
20190418064604 25 52 9.7 12.9 0.00 0.00 0.00 55 1023.2
20190418064105 25 76 4.8 12.9 0.00 0.00 0.00 55 1023.1
20190418063605 26 93 8.0 14.5 0.00 0.00 0.00 54 1023.1
20190418063105 26 64 4.8 12.9 0.00 0.00 0.00 54 1023.0
20190418062605 26 76 8.0 12.9 0.00 0.00 0.00 53 1023.0
20190418062104 26 67 8.0 14.5 0.00 0.00 0.00 52 1022.9
20190418061605 26 70 9.7 16.1 0.00 0.00 0.00 51 1022.9
20190418061104 27 68 9.7 16.1 0.00 0.00 0.00 49 1022.9
20190418060605 27 45 6.4 16.1 0.00 0.00 0.00 48 1022.9
20190418060105 27 59 8.0 16.1 0.00 0.00 0.00 44 1022.8
20190418055605 27 61 9.7 14.5 0.00 0.00 0.00 43 1022.8
20190418055102 27 49 4.8 12.9 0.00 0.00 0.00 43 1022.8
20190418054602 28 29 6.4 14.5 0.00 0.00 0.00 41 1022.8
20190418054102 28 50 1.6 8.0 0.00 0.00 0.00 35 1022.8
20190418053602 28 12 4.8 12.9 0.00 0.00 0.00 35 1022.8
20190418053102 28 42 3.2 9.7 0.00 0.00 0.00 35 1022.7
20190418052603 28 43 3.2 8.0 0.00 0.00 0.00 34 1022.7
20190418052102 28 53 1.6 8.0 0.00 0.00 0.00 35 1022.8
20190418051603 27 94 3.2 4.8 0.00 0.00 0.00 35 1022.8
20190418051103 27 103 3.2 14.5 0.00 0.00 0.00 35 1022.7
20190418050603 27 70 4.8 8.0 0.00 0.00 0.00 36 1022.8
20190418050103 27 354 4.8 8.0 0.00 0.00 0.00 36 1022.7